sensor_id;sensor_type;location;lat;lon;timestamp;P1;durP1;ratioP1;P2;durP2;ratioP2
5343;SDS011;2694;48.954;8.928;2023-04-09T00:01:03;11.20;;;7.72;;
5343;SDS011;2694;48.954;8.928;2023-04-09T00:03:30;11.57;;;7.28;;
5343;SDS011;2694;48.954;8.928;2023-04-09T00:05:57;9.65;;;6.63;;
5343;SDS011;2694;48.954;8.928;2023-04-09T00:08:24;12.23;;;7.60;;
5343;SDS011;2694;48.954;8.928;2023-04-09T00:10:51;10.75;;;7.28;;
5343;SDS011;2694;48.954;8.928;2023-04-09T00:13:20;12.00;;;7.50;;
5343;SDS011;2694;48.954;8.928;2023-04-09T00:15:46;11.30;;;7.22;;
5343;SDS011;2694;48.954;8.928;2023-04-09T00:18:13;11.10;;;7.30;;
5343;SDS011;2694;48.954;8.928;2023-04-09T00:20:41;9.57;;;6.85;;
5343;SDS011;2694;48.954;8.928;2023-04-09T00:23:09;11.82;;;7.97;;
5343;SDS011;2694;48.954;8.928;2023-04-09T00:25:36;12.60;;;7.68;;
5343;SDS011;2694;48.954;8.928;2023-04-09T00:28:03;12.70;;;8.20;;
5343;SDS011;2694;48.954;8.928;2023-04-09T00:30:31;11.73;;;7.80;;
5343;SDS011;2694;48.954;8.928;2023-04-09T00:32:58;12.43;;;8.23;;
5343;SDS011;2694;48.954;8.928;2023-04-09T00:35:25;11.95;;;8.20;;
5343;SDS011;2694;48.954;8.928;2023-04-09T00:37:51;10.63;;;7.90;;
5343;SDS011;2694;48.954;8.928;2023-04-09T00:40:18;14.20;;;8.37;;
5343;SDS011;2694;48.954;8.928;2023-04-09T00:42:45;13.73;;;8.35;;
5343;SDS011;2694;48.954;8.928;2023-04-09T00:45:13;14.05;;;8.00;;
5343;SDS011;2694;48.954;8.928;2023-04-09T00:47:41;12.05;;;8.05;;
5343;SDS011;2694;48.954;8.928;2023-04-09T00:50:10;12.63;;;8.02;;
5343;SDS011;2694;48.954;8.928;2023-04-09T00:52:37;10.85;;;8.05;;
5343;SDS011;2694;48.954;8.928;2023-04-09T00:55:04;12.20;;;8.10;;
5343;SDS011;2694;48.954;8.928;2023-04-09T00:57:31;13.55;;;8.50;;
5343;SDS011;2694;48.954;8.928;2023-04-09T00:59:59;12.10;;;8.15;;
5343;SDS011;2694;48.954;8.928;2023-04-09T01:02:26;12.18;;;7.30;;
5343;SDS011;2694;48.954;8.928;2023-04-09T01:04:56;14.77;;;7.82;;
5343;SDS011;2694;48.954;8.928;2023-04-09T01:07:25;13.68;;;8.60;;
5343;SDS011;2694;48.954;8.928;2023-04-09T01:10:00;13.30;;;8.40;;
5343;SDS011;2694;48.954;8.928;2023-04-09T01:12:35;12.37;;;7.93;;
5343;SDS011;2694;48.954;8.928;2023-04-09T01:15:13;11.50;;;7.70;;
5343;SDS011;2694;48.954;8.928;2023-04-09T01:17:45;12.52;;;8.10;;
5343;SDS011;2694;48.954;8.928;2023-04-09T01:20:21;12.32;;;8.15;;
5343;SDS011;2694;48.954;8.928;2023-04-09T01:22:56;12.90;;;8.95;;
5343;SDS011;2694;48.954;8.928;2023-04-09T01:25:34;14.75;;;8.15;;
5343;SDS011;2694;48.954;8.928;2023-04-09T01:28:15;12.57;;;8.40;;
5343;SDS011;2694;48.954;8.928;2023-04-09T01:30:44;13.82;;;8.57;;
5343;SDS011;2694;48.954;8.928;2023-04-09T01:33:15;13.40;;;9.10;;
5343;SDS011;2694;48.954;8.928;2023-04-09T01:35:44;13.90;;;8.23;;
5343;SDS011;2694;48.954;8.928;2023-04-09T01:38:13;11.68;;;7.93;;
5343;SDS011;2694;48.954;8.928;2023-04-09T01:40:43;13.25;;;8.90;;
5343;SDS011;2694;48.954;8.928;2023-04-09T01:43:10;12.40;;;8.07;;
5343;SDS011;2694;48.954;8.928;2023-04-09T01:45:40;12.50;;;8.10;;
5343;SDS011;2694;48.954;8.928;2023-04-09T01:48:08;13.50;;;8.60;;
5343;SDS011;2694;48.954;8.928;2023-04-09T01:50:35;15.93;;;9.35;;
5343;SDS011;2694;48.954;8.928;2023-04-09T01:53:03;12.82;;;8.65;;
5343;SDS011;2694;48.954;8.928;2023-04-09T01:55:30;14.13;;;8.90;;
5343;SDS011;2694;48.954;8.928;2023-04-09T01:57:57;13.63;;;8.73;;
5343;SDS011;2694;48.954;8.928;2023-04-09T02:00:25;12.20;;;8.40;;
5343;SDS011;2694;48.954;8.928;2023-04-09T02:03:01;15.48;;;8.88;;
5343;SDS011;2694;48.954;8.928;2023-04-09T02:05:34;14.77;;;9.60;;
5343;SDS011;2694;48.954;8.928;2023-04-09T02:08:03;13.73;;;9.05;;
5343;SDS011;2694;48.954;8.928;2023-04-09T02:10:34;14.35;;;8.27;;
5343;SDS011;2694;48.954;8.928;2023-04-09T02:13:03;12.60;;;8.90;;
5343;SDS011;2694;48.954;8.928;2023-04-09T02:15:31;12.20;;;7.68;;
5343;SDS011;2694;48.954;8.928;2023-04-09T02:18:03;11.43;;;7.60;;
5343;SDS011;2694;48.954;8.928;2023-04-09T02:20:30;12.35;;;8.63;;
5343;SDS011;2694;48.954;8.928;2023-04-09T02:22:57;11.20;;;7.57;;
5343;SDS011;2694;48.954;8.928;2023-04-09T02:25:24;12.05;;;8.52;;
5343;SDS011;2694;48.954;8.928;2023-04-09T02:27:52;13.25;;;8.18;;
5343;SDS011;2694;48.954;8.928;2023-04-09T02:30:19;11.93;;;7.78;;
5343;SDS011;2694;48.954;8.928;2023-04-09T02:32:46;11.90;;;7.68;;
5343;SDS011;2694;48.954;8.928;2023-04-09T02:35:15;11.25;;;6.90;;
5343;SDS011;2694;48.954;8.928;2023-04-09T02:37:41;11.13;;;7.18;;
5343;SDS011;2694;48.954;8.928;2023-04-09T02:40:09;12.30;;;7.15;;
5343;SDS011;2694;48.954;8.928;2023-04-09T02:42:36;10.07;;;7.00;;
5343;SDS011;2694;48.954;8.928;2023-04-09T02:45:03;9.80;;;6.18;;
5343;SDS011;2694;48.954;8.928;2023-04-09T02:47:31;10.93;;;6.97;;
5343;SDS011;2694;48.954;8.928;2023-04-09T02:49:58;11.68;;;7.38;;
5343;SDS011;2694;48.954;8.928;2023-04-09T02:52:26;9.88;;;6.60;;
5343;SDS011;2694;48.954;8.928;2023-04-09T02:54:53;10.68;;;7.15;;
5343;SDS011;2694;48.954;8.928;2023-04-09T02:57:20;10.20;;;6.40;;
5343;SDS011;2694;48.954;8.928;2023-04-09T02:59:46;11.45;;;7.07;;
5343;SDS011;2694;48.954;8.928;2023-04-09T03:02:13;12.35;;;7.40;;
5343;SDS011;2694;48.954;8.928;2023-04-09T03:04:40;11.65;;;6.97;;
5343;SDS011;2694;48.954;8.928;2023-04-09T03:07:07;13.00;;;7.80;;
5343;SDS011;2694;48.954;8.928;2023-04-09T03:09:35;10.85;;;7.10;;
5343;SDS011;2694;48.954;8.928;2023-04-09T03:12:02;12.30;;;7.80;;
5343;SDS011;2694;48.954;8.928;2023-04-09T03:14:29;10.85;;;7.40;;
5343;SDS011;2694;48.954;8.928;2023-04-09T03:16:56;9.73;;;7.20;;
5343;SDS011;2694;48.954;8.928;2023-04-09T03:19:23;11.20;;;7.70;;
5343;SDS011;2694;48.954;8.928;2023-04-09T03:21:50;12.30;;;7.80;;
5343;SDS011;2694;48.954;8.928;2023-04-09T03:24:17;11.30;;;7.50;;
5343;SDS011;2694;48.954;8.928;2023-04-09T03:26:45;11.27;;;7.57;;
5343;SDS011;2694;48.954;8.928;2023-04-09T03:29:12;13.82;;;7.47;;
5343;SDS011;2694;48.954;8.928;2023-04-09T03:31:39;12.70;;;7.20;;
5343;SDS011;2694;48.954;8.928;2023-04-09T03:34:06;14.23;;;7.80;;
5343;SDS011;2694;48.954;8.928;2023-04-09T03:36:33;10.90;;;7.22;;
5343;SDS011;2694;48.954;8.928;2023-04-09T03:39:00;11.32;;;7.70;;
5343;SDS011;2694;48.954;8.928;2023-04-09T03:41:27;12.27;;;7.90;;
5343;SDS011;2694;48.954;8.928;2023-04-09T03:43:56;11.03;;;7.67;;
5343;SDS011;2694;48.954;8.928;2023-04-09T03:46:22;10.33;;;6.83;;
5343;SDS011;2694;48.954;8.928;2023-04-09T03:48:50;12.35;;;7.57;;
5343;SDS011;2694;48.954;8.928;2023-04-09T03:51:17;15.43;;;8.10;;
5343;SDS011;2694;48.954;8.928;2023-04-09T03:53:44;12.20;;;8.13;;
5343;SDS011;2694;48.954;8.928;2023-04-09T03:56:11;10.52;;;7.30;;
5343;SDS011;2694;48.954;8.928;2023-04-09T03:58:38;12.95;;;8.00;;
5343;SDS011;2694;48.954;8.928;2023-04-09T04:01:06;13.23;;;7.75;;
5343;SDS011;2694;48.954;8.928;2023-04-09T04:03:33;12.60;;;7.60;;
5343;SDS011;2694;48.954;8.928;2023-04-09T04:06:00;13.90;;;8.20;;
5343;SDS011;2694;48.954;8.928;2023-04-09T04:08:27;13.93;;;7.45;;
5343;SDS011;2694;48.954;8.928;2023-04-09T04:10:54;11.43;;;7.63;;
5343;SDS011;2694;48.954;8.928;2023-04-09T04:13:21;14.23;;;8.77;;
5343;SDS011;2694;48.954;8.928;2023-04-09T04:15:50;12.18;;;8.27;;
5343;SDS011;2694;48.954;8.928;2023-04-09T04:18:18;12.15;;;8.25;;
5343;SDS011;2694;48.954;8.928;2023-04-09T04:20:45;12.90;;;8.55;;
5343;SDS011;2694;48.954;8.928;2023-04-09T04:23:12;12.93;;;8.60;;
5343;SDS011;2694;48.954;8.928;2023-04-09T04:25:39;13.25;;;7.70;;
5343;SDS011;2694;48.954;8.928;2023-04-09T04:28:07;12.05;;;7.50;;
5343;SDS011;2694;48.954;8.928;2023-04-09T04:30:34;12.95;;;7.78;;
5343;SDS011;2694;48.954;8.928;2023-04-09T04:33:01;12.30;;;7.68;;
5343;SDS011;2694;48.954;8.928;2023-04-09T04:35:30;13.13;;;7.75;;
5343;SDS011;2694;48.954;8.928;2023-04-09T04:37:57;11.93;;;7.57;;
5343;SDS011;2694;48.954;8.928;2023-04-09T04:40:23;13.63;;;8.20;;
5343;SDS011;2694;48.954;8.928;2023-04-09T04:42:51;13.85;;;7.80;;
5343;SDS011;2694;48.954;8.928;2023-04-09T04:45:17;12.68;;;8.10;;
5343;SDS011;2694;48.954;8.928;2023-04-09T04:47:44;12.63;;;7.60;;
5343;SDS011;2694;48.954;8.928;2023-04-09T04:50:11;12.23;;;7.40;;
5343;SDS011;2694;48.954;8.928;2023-04-09T04:52:40;12.77;;;7.50;;
5343;SDS011;2694;48.954;8.928;2023-04-09T04:55:07;19.95;;;9.60;;
5343;SDS011;2694;48.954;8.928;2023-04-09T04:57:34;17.15;;;10.35;;
5343;SDS011;2694;48.954;8.928;2023-04-09T05:00:01;16.48;;;9.75;;
5343;SDS011;2694;48.954;8.928;2023-04-09T05:02:28;16.17;;;9.27;;
5343;SDS011;2694;48.954;8.928;2023-04-09T05:05:02;16.45;;;9.13;;
5343;SDS011;2694;48.954;8.928;2023-04-09T05:07:29;14.35;;;8.65;;
5343;SDS011;2694;48.954;8.928;2023-04-09T05:09:57;12.07;;;7.65;;
5343;SDS011;2694;48.954;8.928;2023-04-09T05:12:24;12.40;;;8.03;;
5343;SDS011;2694;48.954;8.928;2023-04-09T05:14:51;12.13;;;8.02;;
5343;SDS011;2694;48.954;8.928;2023-04-09T05:17:18;13.85;;;8.70;;
5343;SDS011;2694;48.954;8.928;2023-04-09T05:19:49;14.37;;;8.60;;
5343;SDS011;2694;48.954;8.928;2023-04-09T05:22:16;13.02;;;9.00;;
5343;SDS011;2694;48.954;8.928;2023-04-09T05:24:43;12.55;;;8.30;;
5343;SDS011;2694;48.954;8.928;2023-04-09T05:27:12;14.35;;;8.50;;
5343;SDS011;2694;48.954;8.928;2023-04-09T05:29:39;16.13;;;8.57;;
5343;SDS011;2694;48.954;8.928;2023-04-09T05:32:06;13.77;;;9.02;;
5343;SDS011;2694;48.954;8.928;2023-04-09T05:34:33;13.63;;;8.60;;
5343;SDS011;2694;48.954;8.928;2023-04-09T05:37:00;14.80;;;8.65;;
5343;SDS011;2694;48.954;8.928;2023-04-09T05:39:27;13.55;;;8.57;;
5343;SDS011;2694;48.954;8.928;2023-04-09T05:41:54;14.80;;;8.57;;
5343;SDS011;2694;48.954;8.928;2023-04-09T05:44:22;15.40;;;9.70;;
5343;SDS011;2694;48.954;8.928;2023-04-09T05:46:49;13.50;;;9.30;;
5343;SDS011;2694;48.954;8.928;2023-04-09T05:49:16;17.20;;;9.30;;
5343;SDS011;2694;48.954;8.928;2023-04-09T05:51:43;16.77;;;10.25;;
5343;SDS011;2694;48.954;8.928;2023-04-09T05:54:10;62.73;;;30.77;;
5343;SDS011;2694;48.954;8.928;2023-04-09T05:56:37;29.35;;;15.80;;
5343;SDS011;2694;48.954;8.928;2023-04-09T05:59:04;20.40;;;12.40;;
5343;SDS011;2694;48.954;8.928;2023-04-09T06:01:32;16.88;;;10.55;;
5343;SDS011;2694;48.954;8.928;2023-04-09T06:04:00;18.10;;;10.48;;
5343;SDS011;2694;48.954;8.928;2023-04-09T06:06:27;14.63;;;9.70;;
5343;SDS011;2694;48.954;8.928;2023-04-09T06:08:54;17.10;;;10.83;;
5343;SDS011;2694;48.954;8.928;2023-04-09T06:11:20;14.35;;;9.40;;
5343;SDS011;2694;48.954;8.928;2023-04-09T06:13:47;16.77;;;10.95;;
5343;SDS011;2694;48.954;8.928;2023-04-09T06:16:14;18.90;;;11.43;;
5343;SDS011;2694;48.954;8.928;2023-04-09T06:18:43;16.92;;;11.23;;
5343;SDS011;2694;48.954;8.928;2023-04-09T06:21:13;16.83;;;10.80;;
5343;SDS011;2694;48.954;8.928;2023-04-09T06:23:39;18.23;;;11.18;;
5343;SDS011;2694;48.954;8.928;2023-04-09T06:26:06;18.40;;;11.60;;
5343;SDS011;2694;48.954;8.928;2023-04-09T06:28:33;18.50;;;11.40;;
5343;SDS011;2694;48.954;8.928;2023-04-09T06:31:00;22.95;;;13.50;;
5343;SDS011;2694;48.954;8.928;2023-04-09T06:33:27;20.05;;;12.80;;
5343;SDS011;2694;48.954;8.928;2023-04-09T06:35:56;16.17;;;11.00;;
5343;SDS011;2694;48.954;8.928;2023-04-09T06:38:23;20.60;;;12.07;;
5343;SDS011;2694;48.954;8.928;2023-04-09T06:40:50;17.58;;;11.15;;
5343;SDS011;2694;48.954;8.928;2023-04-09T06:43:17;15.88;;;10.18;;
5343;SDS011;2694;48.954;8.928;2023-04-09T06:45:44;13.40;;;9.23;;
5343;SDS011;2694;48.954;8.928;2023-04-09T06:48:11;16.05;;;9.50;;
5343;SDS011;2694;48.954;8.928;2023-04-09T06:50:38;16.48;;;10.50;;
5343;SDS011;2694;48.954;8.928;2023-04-09T06:53:06;17.52;;;9.60;;
5343;SDS011;2694;48.954;8.928;2023-04-09T06:55:33;16.10;;;10.38;;
5343;SDS011;2694;48.954;8.928;2023-04-09T06:58:00;15.13;;;10.10;;
5343;SDS011;2694;48.954;8.928;2023-04-09T07:00:27;16.35;;;10.15;;
5343;SDS011;2694;48.954;8.928;2023-04-09T07:02:54;17.85;;;10.15;;
5343;SDS011;2694;48.954;8.928;2023-04-09T07:05:21;15.77;;;9.98;;
5343;SDS011;2694;48.954;8.928;2023-04-09T07:07:49;15.15;;;8.75;;
5343;SDS011;2694;48.954;8.928;2023-04-09T07:10:17;16.38;;;9.18;;
5343;SDS011;2694;48.954;8.928;2023-04-09T07:12:44;17.70;;;8.95;;
5343;SDS011;2694;48.954;8.928;2023-04-09T07:15:11;15.60;;;9.65;;
5343;SDS011;2694;48.954;8.928;2023-04-09T07:17:38;16.02;;;9.48;;
5343;SDS011;2694;48.954;8.928;2023-04-09T07:20:05;17.92;;;9.85;;
5343;SDS011;2694;48.954;8.928;2023-04-09T07:22:33;15.18;;;8.80;;
5343;SDS011;2694;48.954;8.928;2023-04-09T07:25:01;15.77;;;9.00;;
5343;SDS011;2694;48.954;8.928;2023-04-09T07:27:29;16.98;;;9.93;;
5343;SDS011;2694;48.954;8.928;2023-04-09T07:29:56;14.60;;;9.20;;
5343;SDS011;2694;48.954;8.928;2023-04-09T07:32:24;16.30;;;10.00;;
5343;SDS011;2694;48.954;8.928;2023-04-09T07:34:52;13.85;;;9.43;;
5343;SDS011;2694;48.954;8.928;2023-04-09T07:37:20;16.67;;;9.35;;
5343;SDS011;2694;48.954;8.928;2023-04-09T07:39:49;15.07;;;8.90;;
5343;SDS011;2694;48.954;8.928;2023-04-09T07:42:16;13.75;;;8.63;;
5343;SDS011;2694;48.954;8.928;2023-04-09T07:44:45;15.55;;;9.70;;
5343;SDS011;2694;48.954;8.928;2023-04-09T07:47:12;15.10;;;10.00;;
5343;SDS011;2694;48.954;8.928;2023-04-09T07:49:39;17.08;;;10.10;;
5343;SDS011;2694;48.954;8.928;2023-04-09T07:52:06;17.35;;;9.60;;
5343;SDS011;2694;48.954;8.928;2023-04-09T07:54:33;13.98;;;8.60;;
5343;SDS011;2694;48.954;8.928;2023-04-09T07:57:01;15.80;;;9.32;;
5343;SDS011;2694;48.954;8.928;2023-04-09T07:59:28;14.60;;;9.32;;
5343;SDS011;2694;48.954;8.928;2023-04-09T08:01:57;14.60;;;9.60;;
5343;SDS011;2694;48.954;8.928;2023-04-09T08:04:24;15.23;;;9.05;;
5343;SDS011;2694;48.954;8.928;2023-04-09T08:06:52;15.55;;;9.60;;
5343;SDS011;2694;48.954;8.928;2023-04-09T08:09:19;14.95;;;9.20;;
5343;SDS011;2694;48.954;8.928;2023-04-09T08:11:46;15.05;;;9.23;;
5343;SDS011;2694;48.954;8.928;2023-04-09T08:14:14;16.02;;;9.23;;
5343;SDS011;2694;48.954;8.928;2023-04-09T08:16:43;15.88;;;9.60;;
5343;SDS011;2694;48.954;8.928;2023-04-09T08:19:13;13.68;;;8.88;;
5343;SDS011;2694;48.954;8.928;2023-04-09T08:21:42;13.88;;;9.00;;
5343;SDS011;2694;48.954;8.928;2023-04-09T08:24:12;13.77;;;8.35;;
5343;SDS011;2694;48.954;8.928;2023-04-09T08:26:40;11.60;;;7.90;;
5343;SDS011;2694;48.954;8.928;2023-04-09T08:29:10;14.57;;;9.45;;
5343;SDS011;2694;48.954;8.928;2023-04-09T08:31:38;13.93;;;9.00;;
5343;SDS011;2694;48.954;8.928;2023-04-09T08:34:05;10.82;;;7.10;;
5343;SDS011;2694;48.954;8.928;2023-04-09T08:36:33;10.30;;;7.20;;
5343;SDS011;2694;48.954;8.928;2023-04-09T08:39:01;12.38;;;7.95;;
5343;SDS011;2694;48.954;8.928;2023-04-09T08:41:28;11.88;;;7.20;;
5343;SDS011;2694;48.954;8.928;2023-04-09T08:43:56;9.15;;;7.00;;
5343;SDS011;2694;48.954;8.928;2023-04-09T08:46:23;9.20;;;5.90;;
5343;SDS011;2694;48.954;8.928;2023-04-09T08:48:51;10.25;;;5.97;;
5343;SDS011;2694;48.954;8.928;2023-04-09T08:51:19;9.10;;;6.20;;
5343;SDS011;2694;48.954;8.928;2023-04-09T08:53:51;7.07;;;5.10;;
5343;SDS011;2694;48.954;8.928;2023-04-09T08:56:21;8.70;;;5.90;;
5343;SDS011;2694;48.954;8.928;2023-04-09T08:58:48;11.00;;;6.30;;
5343;SDS011;2694;48.954;8.928;2023-04-09T09:01:19;8.45;;;5.50;;
5343;SDS011;2694;48.954;8.928;2023-04-09T09:03:54;7.10;;;5.40;;
5343;SDS011;2694;48.954;8.928;2023-04-09T09:06:23;7.15;;;4.80;;
5343;SDS011;2694;48.954;8.928;2023-04-09T09:09:05;10.13;;;5.15;;
5343;SDS011;2694;48.954;8.928;2023-04-09T09:11:35;8.50;;;5.70;;
5343;SDS011;2694;48.954;8.928;2023-04-09T09:14:03;8.20;;;5.50;;
5343;SDS011;2694;48.954;8.928;2023-04-09T09:16:32;9.90;;;5.97;;
5343;SDS011;2694;48.954;8.928;2023-04-09T09:19:00;9.20;;;5.90;;
5343;SDS011;2694;48.954;8.928;2023-04-09T09:21:27;7.18;;;5.00;;
5343;SDS011;2694;48.954;8.928;2023-04-09T09:23:55;7.90;;;5.32;;
5343;SDS011;2694;48.954;8.928;2023-04-09T09:26:25;7.93;;;5.13;;
5343;SDS011;2694;48.954;8.928;2023-04-09T09:28:53;6.28;;;4.90;;
5343;SDS011;2694;48.954;8.928;2023-04-09T09:31:22;8.02;;;4.80;;
5343;SDS011;2694;48.954;8.928;2023-04-09T09:33:50;6.70;;;4.30;;
5343;SDS011;2694;48.954;8.928;2023-04-09T09:36:30;6.85;;;4.60;;
5343;SDS011;2694;48.954;8.928;2023-04-09T09:38:58;6.95;;;4.60;;
5343;SDS011;2694;48.954;8.928;2023-04-09T09:41:29;6.30;;;4.53;;
5343;SDS011;2694;48.954;8.928;2023-04-09T09:43:56;5.95;;;4.20;;
5343;SDS011;2694;48.954;8.928;2023-04-09T09:46:23;7.67;;;4.53;;
5343;SDS011;2694;48.954;8.928;2023-04-09T09:48:51;7.07;;;5.28;;
5343;SDS011;2694;48.954;8.928;2023-04-09T09:51:18;8.63;;;5.85;;
5343;SDS011;2694;48.954;8.928;2023-04-09T09:53:50;8.40;;;5.10;;
5343;SDS011;2694;48.954;8.928;2023-04-09T09:56:21;5.85;;;4.30;;
5343;SDS011;2694;48.954;8.928;2023-04-09T09:58:53;7.38;;;4.70;;
5343;SDS011;2694;48.954;8.928;2023-04-09T10:01:28;6.30;;;4.00;;
5343;SDS011;2694;48.954;8.928;2023-04-09T10:03:56;6.50;;;4.30;;
5343;SDS011;2694;48.954;8.928;2023-04-09T10:06:26;4.40;;;3.00;;
5343;SDS011;2694;48.954;8.928;2023-04-09T10:08:55;3.42;;;2.30;;
5343;SDS011;2694;48.954;8.928;2023-04-09T10:11:25;4.28;;;3.00;;
5343;SDS011;2694;48.954;8.928;2023-04-09T10:13:55;4.20;;;2.90;;
5343;SDS011;2694;48.954;8.928;2023-04-09T10:16:23;3.73;;;2.90;;
5343;SDS011;2694;48.954;8.928;2023-04-09T10:18:52;4.00;;;2.70;;
5343;SDS011;2694;48.954;8.928;2023-04-09T10:21:23;5.13;;;3.00;;
5343;SDS011;2694;48.954;8.928;2023-04-09T10:23:56;5.25;;;2.80;;
5343;SDS011;2694;48.954;8.928;2023-04-09T10:26:25;4.20;;;2.90;;
5343;SDS011;2694;48.954;8.928;2023-04-09T10:29:06;4.70;;;3.10;;
5343;SDS011;2694;48.954;8.928;2023-04-09T10:31:47;6.13;;;4.18;;
5343;SDS011;2694;48.954;8.928;2023-04-09T10:34:20;5.45;;;3.63;;
5343;SDS011;2694;48.954;8.928;2023-04-09T10:36:50;5.30;;;3.72;;
5343;SDS011;2694;48.954;8.928;2023-04-09T10:39:18;4.97;;;3.38;;
5343;SDS011;2694;48.954;8.928;2023-04-09T10:41:46;4.68;;;2.92;;
5343;SDS011;2694;48.954;8.928;2023-04-09T10:44:21;4.05;;;3.10;;
5343;SDS011;2694;48.954;8.928;2023-04-09T10:46:51;4.90;;;3.35;;
5343;SDS011;2694;48.954;8.928;2023-04-09T10:49:25;5.88;;;3.90;;
5343;SDS011;2694;48.954;8.928;2023-04-09T10:51:53;6.70;;;4.20;;
5343;SDS011;2694;48.954;8.928;2023-04-09T10:54:40;5.07;;;3.50;;
5343;SDS011;2694;48.954;8.928;2023-04-09T10:57:12;4.93;;;3.50;;
5343;SDS011;2694;48.954;8.928;2023-04-09T10:59:48;6.43;;;4.47;;
5343;SDS011;2694;48.954;8.928;2023-04-09T11:02:26;6.95;;;3.33;;
5343;SDS011;2694;48.954;8.928;2023-04-09T11:05:17;5.60;;;3.63;;
5343;SDS011;2694;48.954;8.928;2023-04-09T11:07:48;5.65;;;3.78;;
5343;SDS011;2694;48.954;8.928;2023-04-09T11:10:19;5.40;;;3.38;;
5343;SDS011;2694;48.954;8.928;2023-04-09T11:12:46;4.82;;;3.30;;
5343;SDS011;2694;48.954;8.928;2023-04-09T11:15:18;4.07;;;3.10;;
5343;SDS011;2694;48.954;8.928;2023-04-09T11:17:46;5.25;;;3.50;;
5343;SDS011;2694;48.954;8.928;2023-04-09T11:20:13;3.65;;;2.78;;
5343;SDS011;2694;48.954;8.928;2023-04-09T11:22:41;3.05;;;2.20;;
5343;SDS011;2694;48.954;8.928;2023-04-09T11:25:08;4.70;;;3.20;;
5343;SDS011;2694;48.954;8.928;2023-04-09T11:27:36;3.60;;;2.50;;
5343;SDS011;2694;48.954;8.928;2023-04-09T11:30:04;3.20;;;2.40;;
5343;SDS011;2694;48.954;8.928;2023-04-09T11:32:33;3.85;;;1.98;;
5343;SDS011;2694;48.954;8.928;2023-04-09T11:35:09;4.60;;;2.30;;
5343;SDS011;2694;48.954;8.928;2023-04-09T11:37:37;3.17;;;2.50;;
5343;SDS011;2694;48.954;8.928;2023-04-09T11:40:05;4.63;;;2.95;;
5343;SDS011;2694;48.954;8.928;2023-04-09T11:42:33;2.78;;;1.92;;
5343;SDS011;2694;48.954;8.928;2023-04-09T11:45:01;4.18;;;2.35;;
5343;SDS011;2694;48.954;8.928;2023-04-09T11:47:29;2.63;;;2.10;;
5343;SDS011;2694;48.954;8.928;2023-04-09T11:49:59;3.13;;;2.30;;
5343;SDS011;2694;48.954;8.928;2023-04-09T11:52:27;3.90;;;2.50;;
5343;SDS011;2694;48.954;8.928;2023-04-09T11:54:58;3.70;;;2.85;;
5343;SDS011;2694;48.954;8.928;2023-04-09T11:57:34;3.75;;;2.83;;
5343;SDS011;2694;48.954;8.928;2023-04-09T12:00:04;3.22;;;2.40;;
5343;SDS011;2694;48.954;8.928;2023-04-09T12:02:33;3.30;;;2.60;;
5343;SDS011;2694;48.954;8.928;2023-04-09T12:05:07;5.63;;;3.10;;
5343;SDS011;2694;48.954;8.928;2023-04-09T12:07:36;3.85;;;2.67;;
5343;SDS011;2694;48.954;8.928;2023-04-09T12:10:04;3.85;;;2.50;;
5343;SDS011;2694;48.954;8.928;2023-04-09T12:12:38;4.63;;;3.23;;
5343;SDS011;2694;48.954;8.928;2023-04-09T12:15:09;3.88;;;3.00;;
5343;SDS011;2694;48.954;8.928;2023-04-09T12:17:49;3.65;;;2.78;;
5343;SDS011;2694;48.954;8.928;2023-04-09T12:20:29;3.85;;;2.72;;
5343;SDS011;2694;48.954;8.928;2023-04-09T12:22:58;4.45;;;3.15;;
5343;SDS011;2694;48.954;8.928;2023-04-09T12:25:27;3.20;;;2.50;;
5343;SDS011;2694;48.954;8.928;2023-04-09T12:27:55;4.22;;;2.70;;
5343;SDS011;2694;48.954;8.928;2023-04-09T12:30:22;2.95;;;2.28;;
5343;SDS011;2694;48.954;8.928;2023-04-09T12:32:50;3.40;;;2.57;;
5343;SDS011;2694;48.954;8.928;2023-04-09T12:35:18;4.28;;;2.90;;
5343;SDS011;2694;48.954;8.928;2023-04-09T12:37:46;4.20;;;3.10;;
5343;SDS011;2694;48.954;8.928;2023-04-09T12:40:14;4.07;;;2.80;;
5343;SDS011;2694;48.954;8.928;2023-04-09T12:42:41;4.03;;;2.70;;
5343;SDS011;2694;48.954;8.928;2023-04-09T12:45:11;4.05;;;3.05;;
5343;SDS011;2694;48.954;8.928;2023-04-09T12:47:38;5.10;;;3.25;;
5343;SDS011;2694;48.954;8.928;2023-04-09T12:50:06;3.78;;;2.58;;
5343;SDS011;2694;48.954;8.928;2023-04-09T12:52:34;4.43;;;2.80;;
5343;SDS011;2694;48.954;8.928;2023-04-09T12:55:03;4.00;;;2.70;;
5343;SDS011;2694;48.954;8.928;2023-04-09T12:57:31;5.40;;;3.67;;
5343;SDS011;2694;48.954;8.928;2023-04-09T12:59:58;3.80;;;2.70;;
5343;SDS011;2694;48.954;8.928;2023-04-09T13:02:25;3.83;;;2.60;;
5343;SDS011;2694;48.954;8.928;2023-04-09T13:04:52;3.80;;;2.60;;
5343;SDS011;2694;48.954;8.928;2023-04-09T13:07:19;3.30;;;2.60;;
5343;SDS011;2694;48.954;8.928;2023-04-09T13:09:46;4.00;;;2.83;;
5343;SDS011;2694;48.954;8.928;2023-04-09T13:12:15;4.82;;;3.20;;
5343;SDS011;2694;48.954;8.928;2023-04-09T13:14:43;3.85;;;2.65;;
5343;SDS011;2694;48.954;8.928;2023-04-09T13:17:11;3.47;;;2.78;;
5343;SDS011;2694;48.954;8.928;2023-04-09T13:19:38;6.10;;;3.80;;
5343;SDS011;2694;48.954;8.928;2023-04-09T13:22:05;3.85;;;2.90;;
5343;SDS011;2694;48.954;8.928;2023-04-09T13:24:32;3.00;;;2.70;;
5343;SDS011;2694;48.954;8.928;2023-04-09T13:27:03;3.47;;;2.45;;
5343;SDS011;2694;48.954;8.928;2023-04-09T13:29:32;3.70;;;2.77;;
5343;SDS011;2694;48.954;8.928;2023-04-09T13:31:59;4.70;;;3.28;;
5343;SDS011;2694;48.954;8.928;2023-04-09T13:34:31;4.20;;;2.60;;
5343;SDS011;2694;48.954;8.928;2023-04-09T13:36:58;5.65;;;3.35;;
5343;SDS011;2694;48.954;8.928;2023-04-09T13:39:25;4.20;;;2.70;;
5343;SDS011;2694;48.954;8.928;2023-04-09T13:41:52;4.50;;;3.00;;
5343;SDS011;2694;48.954;8.928;2023-04-09T13:44:20;4.22;;;2.90;;
5343;SDS011;2694;48.954;8.928;2023-04-09T13:46:49;6.03;;;3.45;;
5343;SDS011;2694;48.954;8.928;2023-04-09T13:49:16;6.68;;;3.72;;
5343;SDS011;2694;48.954;8.928;2023-04-09T13:51:44;4.60;;;2.58;;
5343;SDS011;2694;48.954;8.928;2023-04-09T13:54:11;5.80;;;3.57;;
5343;SDS011;2694;48.954;8.928;2023-04-09T13:56:38;5.03;;;3.00;;
5343;SDS011;2694;48.954;8.928;2023-04-09T13:59:05;4.05;;;2.80;;
5343;SDS011;2694;48.954;8.928;2023-04-09T14:01:32;4.82;;;2.97;;
5343;SDS011;2694;48.954;8.928;2023-04-09T14:04:01;4.15;;;2.40;;
5343;SDS011;2694;48.954;8.928;2023-04-09T14:06:28;3.13;;;2.55;;
5343;SDS011;2694;48.954;8.928;2023-04-09T14:08:55;4.32;;;2.30;;
5343;SDS011;2694;48.954;8.928;2023-04-09T14:11:22;4.63;;;2.50;;
5343;SDS011;2694;48.954;8.928;2023-04-09T14:13:49;3.50;;;2.58;;
5343;SDS011;2694;48.954;8.928;2023-04-09T14:16:16;3.95;;;2.65;;
5343;SDS011;2694;48.954;8.928;2023-04-09T14:18:44;3.88;;;2.83;;
5343;SDS011;2694;48.954;8.928;2023-04-09T14:21:12;5.10;;;2.50;;
5343;SDS011;2694;48.954;8.928;2023-04-09T14:23:39;3.30;;;2.30;;
5343;SDS011;2694;48.954;8.928;2023-04-09T14:26:06;3.28;;;2.35;;
5343;SDS011;2694;48.954;8.928;2023-04-09T14:28:33;3.40;;;2.60;;
5343;SDS011;2694;48.954;8.928;2023-04-09T14:31:00;4.15;;;2.80;;
5343;SDS011;2694;48.954;8.928;2023-04-09T14:33:27;3.83;;;2.50;;
5343;SDS011;2694;48.954;8.928;2023-04-09T14:35:56;3.65;;;2.45;;
5343;SDS011;2694;48.954;8.928;2023-04-09T14:38:24;3.38;;;2.60;;
5343;SDS011;2694;48.954;8.928;2023-04-09T14:40:52;5.10;;;3.00;;
5343;SDS011;2694;48.954;8.928;2023-04-09T14:43:19;3.97;;;2.83;;
5343;SDS011;2694;48.954;8.928;2023-04-09T14:45:46;3.65;;;2.40;;
5343;SDS011;2694;48.954;8.928;2023-04-09T14:48:12;4.15;;;2.67;;
5343;SDS011;2694;48.954;8.928;2023-04-09T14:50:40;3.75;;;2.83;;
5343;SDS011;2694;48.954;8.928;2023-04-09T14:53:07;5.60;;;2.60;;
5343;SDS011;2694;48.954;8.928;2023-04-09T14:55:35;6.18;;;2.50;;
5343;SDS011;2694;48.954;8.928;2023-04-09T14:58:03;3.70;;;2.40;;
5343;SDS011;2694;48.954;8.928;2023-04-09T15:00:32;3.30;;;2.58;;
5343;SDS011;2694;48.954;8.928;2023-04-09T15:03:03;3.85;;;2.60;;
5343;SDS011;2694;48.954;8.928;2023-04-09T15:05:29;3.50;;;2.38;;
5343;SDS011;2694;48.954;8.928;2023-04-09T15:07:56;4.70;;;2.00;;
5343;SDS011;2694;48.954;8.928;2023-04-09T15:10:24;2.90;;;2.20;;
5343;SDS011;2694;48.954;8.928;2023-04-09T15:12:53;2.95;;;2.28;;